Caryville, Tennessee
Current Conditions -  °F | °C
As of 5:53 AM on Tuesday 21 Oct 2014 (Local Time) from KOQT Reporting Station
Scattered Clouds Scattered Clouds  
Wind Chill: 52°   Ceiling: Unl
Heat Index: 52°   Visibility: 10mi
Dew Point: 48°   Wind: 0mph
Humidity: 86%   Direction: NA
Pressure: 30"   Gusts: NA
Location:  36.3°N, 84.22°W
Report Text: KOQT 210953Z AUTO 00000KT 10SM SCT070 11/09 A3000 RMK AO2 SLP156 T01110089
Loading
Personal Weather Stations






























Interactive Weather Map
Tropical Storm Tracking
New forecast layout! Learn more

10-Day Weather Forecast

Advertisements
Track Severe Weather on mobile